TimeCST,TemperatureF,Dew PointF,Humidity,Sea Level PressureIn,VisibilityMPH,Wind Direction,Wind SpeedMPH,Gust SpeedMPH,PrecipitationIn,Events,Conditions,WindDirDegrees,DateUTC
12:39 AM,48.2,48.2,100,30.00,4.0,West,11.5,-,N/A,,Overcast,280,2013-01-17 06:39:00
12:55 AM,48.2,47.7,98,30.00,2.5,West,11.5,-,0.01,,Overcast,280,2013-01-17 06:55:00
1:02 AM,48.2,46.4,93,30.00,3.0,West,12.7,-,N/A,,Overcast,280,2013-01-17 07:02:00
1:11 AM,46.4,46.4,100,30.01,2.5,West,10.4,-,N/A,,Overcast,270,2013-01-17 07:11:00
1:17 AM,46.4,46.4,100,30.01,3.0,West,10.4,-,N/A,,Overcast,270,2013-01-17 07:17:00
1:24 AM,46.4,46.4,100,30.01,7.0,West,8.1,-,N/A,,Overcast,280,2013-01-17 07:24:00
1:45 AM,46.4,46.4,100,30.01,10.0,West,8.1,-,N/A,,Overcast,280,2013-01-17 07:45:00
1:49 AM,46.4,46.4,100,30.01,10.0,West,6.9,-,N/A,,Overcast,270,2013-01-17 07:49:00
1:55 AM,46.4,45.9,98,30.01,10.0,WNW,8.1,-,N/A,,Overcast,290,2013-01-17 07:55:00
2:50 AM,46.4,44.6,93,30.01,8.0,WSW,9.2,-,N/A,,Overcast,240,2013-01-17 08:50:00
2:55 AM,45.9,45.0,97,30.01,9.0,WSW,6.9,-,N/A,,Overcast,250,2013-01-17 08:55:00
3:05 AM,46.4,44.6,93,30.01,10.0,WSW,9.2,-,N/A,,Overcast,250,2013-01-17 09:05:00
3:23 AM,44.6,44.6,100,30.01,10.0,West,6.9,-,N/A,,Overcast,270,2013-01-17 09:23:00
3:33 AM,44.6,44.6,100,30.01,8.0,West,8.1,-,N/A,,Overcast,270,2013-01-17 09:33:00
3:55 AM,45.1,44.2,97,30.01,9.0,WSW,9.2,-,N/A,,Overcast,250,2013-01-17 09:55:00
4:03 AM,44.6,44.6,100,30.01,10.0,West,9.2,-,N/A,,Overcast,260,2013-01-17 10:03:00
4:23 AM,44.6,44.6,100,30.01,9.0,West,6.9,-,N/A,,Overcast,270,2013-01-17 10:23:00
4:41 AM,44.6,42.8,93,30.02,8.0,West,11.5,-,N/A,,Overcast,260,2013-01-17 10:41:00
4:54 AM,44.6,42.8,93,30.03,10.0,West,13.8,23.0,N/A,,Overcast,260,2013-01-17 10:54:00
4:55 AM,44.4,42.3,92,30.03,10.0,West,15.0,23.0,N/A,,Overcast,260,2013-01-17 10:55:00
5:05 AM,44.6,41.0,87,30.04,10.0,West,11.5,-,N/A,,Overcast,260,2013-01-17 11:05:00
5:10 AM,44.6,41.0,87,30.04,10.0,West,12.7,-,N/A,,Overcast,260,2013-01-17 11:10:00
5:28 AM,44.6,41.0,87,30.04,10.0,West,12.7,18.4,N/A,,Overcast,270,2013-01-17 11:28:00
5:30 AM,44.6,41.0,87,30.04,10.0,West,13.8,18.4,N/A,,Overcast,260,2013-01-17 11:30:00
5:43 AM,42.8,41.0,93,30.04,8.0,West,13.8,-,N/A,,Overcast,280,2013-01-17 11:43:00
5:46 AM,42.8,41.0,93,30.04,8.0,West,12.7,-,N/A,,Overcast,270,2013-01-17 11:46:00
5:48 AM,42.8,41.0,93,30.04,8.0,West,12.7,-,N/A,,Overcast,270,2013-01-17 11:48:00
5:52 AM,42.8,41.0,93,30.04,9.0,West,15.0,21.9,N/A,,Overcast,260,2013-01-17 11:52:00
5:54 AM,42.8,39.2,87,30.04,10.0,West,12.7,21.9,N/A,,Overcast,260,2013-01-17 11:54:00
5:55 AM,42.8,40.3,91,30.04,10.0,West,13.8,21.9,0.00,,Overcast,260,2013-01-17 11:55:00
5:57 AM,42.8,39.2,87,30.04,10.0,West,16.1,24.2,N/A,,Overcast,260,2013-01-17 11:57:00
5:59 AM,42.8,39.2,87,30.05,10.0,West,13.8,24.2,N/A,,Overcast,260,2013-01-17 11:59:00
6:17 AM,42.8,39.2,87,30.05,10.0,West,13.8,-,N/A,,Overcast,260,2013-01-17 12:17:00
6:23 AM,42.8,39.2,87,30.06,10.0,West,9.2,-,N/A,,Overcast,270,2013-01-17 12:23:00
6:45 AM,41.0,39.2,93,30.05,10.0,West,9.2,-,N/A,,Overcast,270,2013-01-17 12:45:00
6:55 AM,41.4,39.2,92,30.06,10.0,West,10.4,-,N/A,,Overcast,270,2013-01-17 12:55:00
7:03 AM,41.0,37.4,87,30.06,10.0,West,15.0,-,N/A,,Overcast,270,2013-01-17 13:03:00
7:16 AM,41.0,37.4,87,30.07,10.0,West,13.8,19.6,N/A,,Overcast,260,2013-01-17 13:16:00
7:17 AM,41.0,37.4,87,30.07,10.0,West,15.0,-,N/A,,Overcast,260,2013-01-17 13:17:00
7:19 AM,41.0,37.4,87,30.07,10.0,WSW,11.5,19.6,N/A,,Overcast,250,2013-01-17 13:19:00
7:25 AM,41.0,35.6,81,30.08,10.0,West,12.7,20.7,N/A,,Overcast,260,2013-01-17 13:25:00
7:55 AM,40.3,35.4,83,30.09,10.0,West,13.8,23.0,N/A,,Overcast,260,2013-01-17 13:55:00
8:05 AM,39.2,35.6,87,30.09,10.0,West,11.5,-,N/A,,Overcast,270,2013-01-17 14:05:00
8:55 AM,39.0,35.6,88,30.12,10.0,West,17.3,24.2,N/A,,Overcast,270,2013-01-17 14:55:00
9:55 AM,41.0,34.0,76,30.12,10.0,West,12.7,-,N/A,,Mostly Cloudy,270,2013-01-17 15:55:00
10:59 AM,39.9,32.9,76,30.12,10.0,West,12.7,27.6,N/A,,Mostly Cloudy,280,2013-01-17 16:59:00
11:58 AM,39.7,30.2,69,30.13,10.0,WNW,23.0,31.1,N/A,,Overcast,290,2013-01-17 17:58:00
12:55 PM,41.7,30.6,65,30.11,10.0,WNW,16.1,25.3,N/A,,Mostly Cloudy,300,2013-01-17 18:55:00
1:55 PM,42.1,31.3,66,30.12,10.0,NW,16.1,-,N/A,,Mostly Cloudy,310,2013-01-17 19:55:00
2:55 PM,43.3,32.4,65,30.13,10.0,WNW,18.4,26.5,N/A,,Overcast,300,2013-01-17 20:55:00
3:55 PM,43.9,33.3,66,30.16,10.0,NW,17.3,23.0,N/A,,Overcast,310,2013-01-17 21:55:00
4:56 PM,43.7,34.0,69,30.21,10.0,NW,13.8,20.7,N/A,,Mostly Cloudy,320,2013-01-17 22:56:00
5:55 PM,43.0,34.0,71,30.24,10.0,NW,13.8,23.0,N/A,,Scattered Clouds,320,2013-01-17 23:55:00
6:55 PM,42.1,33.1,70,30.25,10.0,NNW,15.0,-,N/A,,Partly Cloudy,330,2013-01-18 00:55:00
7:59 PM,41.7,32.2,69,30.28,10.0,NNW,15.0,-,N/A,,Clear,330,2013-01-18 01:59:00
8:55 PM,41.4,32.0,69,30.29,10.0,NNW,17.3,23.0,N/A,,Clear,330,2013-01-18 02:55:00
9:55 PM,41.0,32.7,72,30.29,10.0,NW,15.0,-,N/A,,Clear,320,2013-01-18 03:55:00
10:55 PM,41.7,32.7,70,30.27,10.0,NNW,16.1,24.2,N/A,,Clear,340,2013-01-18 04:55:00
11:55 PM,41.5,32.5,70,30.28,10.0,North,16.1,21.9,N/A,,Clear,350,2013-01-18 05:55:00